createdAt,value
2023-01-17T00:00:08.923Z,95788.11
2023-01-17T00:00:18.955Z,95785.88
2023-01-17T00:00:29.053Z,95788.93
2023-01-17T00:00:38.927Z,95790.90
2023-01-17T00:00:48.864Z,95791.06
2023-01-17T00:00:58.876Z,95787.79
2023-01-17T00:01:08.903Z,95788.52
2023-01-17T00:01:18.870Z,95786.81
2023-01-17T00:01:28.927Z,95794.28
2023-01-17T00:01:38.872Z,95788.44
2023-01-17T00:01:48.919Z,95788.72
2023-01-17T00:01:58.862Z,95789.17
2023-01-17T00:02:08.920Z,95788.11
2023-01-17T00:02:18.965Z,95790.41
2023-01-17T00:02:28.944Z,95791.80
2023-01-17T00:02:38.935Z,95793.19
2023-01-17T00:02:48.926Z,95786.28
2023-01-17T00:02:58.920Z,95795.11
2023-01-17T00:03:08.984Z,95793.12
2023-01-17T00:03:18.985Z,95795.48
2023-01-17T00:03:29.001Z,95801.62
2023-01-17T00:03:39.006Z,95800.36
2023-01-17T00:03:48.998Z,95800.03
2023-01-17T00:03:59.070Z,95797.30
2023-01-17T00:04:09.003Z,95802.57
2023-01-17T00:04:18.978Z,95805.19
2023-01-17T00:04:28.920Z,95800.57
2023-01-17T00:04:38.935Z,95795.98
2023-01-17T00:04:48.965Z,95795.50
2023-01-17T00:04:59.821Z,95794.36
2023-01-17T00:05:08.915Z,95790.43
2023-01-17T00:05:18.900Z,95790.27
2023-01-17T00:05:28.928Z,95793.95
2023-01-17T00:05:38.856Z,95790.92
2023-01-17T00:05:48.888Z,95795.17
2023-01-17T00:05:58.980Z,95793.90
2023-01-17T00:06:08.903Z,95796.68
2023-01-17T00:06:18.928Z,95799.46
2023-01-17T00:06:28.963Z,95799.38
2023-01-17T00:06:38.877Z,95801.23
2023-01-17T00:06:48.940Z,95802.29
2023-01-17T00:06:58.932Z,95797.88
2023-01-17T00:07:08.900Z,95793.86
2023-01-17T00:07:18.882Z,95796.64
2023-01-17T00:07:28.895Z,95792.84
2023-01-17T00:07:38.896Z,95800.05
2023-01-17T00:07:48.988Z,95795.42
2023-01-17T00:07:58.891Z,95794.77
2023-01-17T00:08:08.983Z,95794.45
2023-01-17T00:08:18.951Z,95796.41
2023-01-17T00:08:28.853Z,95798.91
2023-01-17T00:08:38.882Z,95799.81
2023-01-17T00:08:48.882Z,95793.72
2023-01-17T00:08:58.929Z,95797.98
2023-01-17T00:09:08.904Z,95803.98
2023-01-17T00:09:18.904Z,95802.75
2023-01-17T00:09:28.884Z,95803.33
2023-01-17T00:09:38.874Z,95801.41
2023-01-17T00:09:49.000Z,95796.98
2023-01-17T00:09:58.905Z,95799.94
2023-01-17T00:10:08.898Z,95798.46
2023-01-17T00:10:18.995Z,95797.16
2023-01-17T00:10:28.895Z,95799.04
2023-01-17T00:10:38.910Z,95804.23
2023-01-17T00:10:48.993Z,95797.81
2023-01-17T00:10:58.869Z,95803.70
2023-01-17T00:11:08.912Z,95804.14
2023-01-17T00:11:18.918Z,95800.71
2023-01-17T00:11:28.951Z,95798.05
2023-01-17T00:11:38.934Z,95798.21
2023-01-17T00:11:53.873Z,95802.41
2023-01-17T00:11:58.870Z,95804.54
2023-01-17T00:12:08.961Z,95808.05
2023-01-17T00:12:18.945Z,95804.13
2023-01-17T00:12:28.979Z,95804.95
2023-01-17T00:12:38.979Z,95801.97
2023-01-17T00:12:49.043Z,95802.55
2023-01-17T00:12:58.867Z,95801.16
2023-01-17T00:13:08.970Z,95799.97
2023-01-17T00:13:18.909Z,95798.20
2023-01-17T00:13:28.858Z,95796.82
2023-01-17T00:13:38.931Z,95799.56
2023-01-17T00:13:48.926Z,95799.52
2023-01-17T00:13:58.907Z,95800.83
2023-01-17T00:14:08.861Z,95803.45
2023-01-17T00:14:18.862Z,95805.24
2023-01-17T00:14:28.984Z,95804.67
2023-01-17T00:14:38.879Z,95799.68
2023-01-17T00:14:48.965Z,95800.62
2023-01-17T00:14:58.997Z,95801.36
2023-01-17T00:15:08.882Z,95802.30
2023-01-17T00:15:18.893Z,95798.62
2023-01-17T00:15:28.868Z,95800.27
2023-01-17T00:15:38.950Z,95809.38
2023-01-17T00:15:48.930Z,95805.17
2023-01-17T00:15:58.908Z,95799.86
2023-01-17T00:16:08.994Z,95803.05
2023-01-17T00:16:18.970Z,95802.39
2023-01-17T00:16:28.924Z,95804.64
2023-01-17T00:16:38.912Z,95808.03
2023-01-17T00:16:48.879Z,95803.34
2023-01-17T00:16:58.892Z,95802.73
2023-01-17T00:17:08.891Z,95803.62
2023-01-17T00:17:18.943Z,95804.94
2023-01-17T00:17:28.926Z,95810.46
2023-01-17T00:17:38.900Z,95803.06
2023-01-17T00:17:48.978Z,95800.61
2023-01-17T00:17:58.904Z,95803.80
2023-01-17T00:18:08.996Z,95804.50
2023-01-17T00:18:18.878Z,95804.66
2023-01-17T00:18:28.971Z,95803.72
2023-01-17T00:18:38.904Z,95807.69
2023-01-17T00:18:48.914Z,95809.33
2023-01-17T00:18:58.900Z,95810.23
2023-01-17T00:19:08.954Z,95805.97
2023-01-17T00:19:18.953Z,95808.75
2023-01-17T00:19:28.884Z,95807.77
2023-01-17T00:19:38.945Z,95806.62
2023-01-17T00:19:48.886Z,95804.01
2023-01-17T00:19:58.996Z,95810.72
2023-01-17T00:20:08.999Z,95808.02
2023-01-17T00:20:20.217Z,95808.42
2023-01-17T00:20:28.896Z,95811.90
2023-01-17T00:20:38.985Z,95807.94
2023-01-17T00:20:48.883Z,95808.46
2023-01-17T00:20:58.990Z,95812.88
2023-01-17T00:21:08.855Z,95810.06
2023-01-17T00:21:18.859Z,95812.52
2023-01-17T00:21:28.924Z,95810.95
2023-01-17T00:21:38.963Z,95818.80
2023-01-17T00:21:48.904Z,95813.95
2023-01-17T00:21:58.979Z,95808.14
2023-01-17T00:22:08.972Z,95811.50
2023-01-17T00:22:18.865Z,95810.52
2023-01-17T00:22:28.878Z,95811.50
2023-01-17T00:22:38.884Z,95809.53
2023-01-17T00:22:48.896Z,95814.48
2023-01-17T00:22:58.967Z,95812.35
2023-01-17T00:23:08.962Z,95808.67
2023-01-17T00:23:18.927Z,95811.86
2023-01-17T00:23:28.964Z,95806.30
2023-01-17T00:23:38.959Z,95806.92
2023-01-17T00:23:48.881Z,95806.54
2023-01-17T00:23:58.892Z,95803.16
2023-01-17T00:24:08.923Z,95806.64
2023-01-17T00:24:18.860Z,95805.12
2023-01-17T00:24:28.995Z,95808.55
2023-01-17T00:24:39.020Z,95807.95
2023-01-17T00:24:48.971Z,95808.55
2023-01-17T00:24:58.874Z,95810.40
2023-01-17T00:25:08.888Z,95805.00
2023-01-17T00:25:18.926Z,95800.75
2023-01-17T00:25:28.969Z,95809.09
2023-01-17T00:25:38.930Z,95807.73
2023-01-17T00:25:48.979Z,95804.47
2023-01-17T00:25:58.992Z,95800.54
2023-01-17T00:26:08.871Z,95809.53
2023-01-17T00:26:18.942Z,95812.72
2023-01-17T00:26:28.984Z,95815.38
2023-01-17T00:26:38.921Z,95818.36
2023-01-17T00:26:48.954Z,95814.23
2023-01-17T00:26:58.886Z,95820.16
2023-01-17T00:27:08.866Z,95820.12
2023-01-17T00:27:18.998Z,95817.59
2023-01-17T00:27:28.902Z,95816.50
2023-01-17T00:27:38.871Z,95814.69
2023-01-17T00:27:48.979Z,95809.66
2023-01-17T00:27:58.950Z,95811.80
2023-01-17T00:28:08.967Z,95805.88
2023-01-17T00:28:19.317Z,95811.55
2023-01-17T00:28:28.906Z,95810.38
2023-01-17T00:28:38.981Z,95813.52
2023-01-17T00:28:48.949Z,95815.23
2023-01-17T00:28:58.995Z,95814.91
2023-01-17T00:29:08.946Z,95812.26
2023-01-17T00:29:18.871Z,95812.17
2023-01-17T00:29:28.945Z,95809.72
2023-01-17T00:29:38.867Z,95814.62
2023-01-17T00:29:48.919Z,95811.44
2023-01-17T00:29:58.984Z,95803.88
2023-01-17T00:30:08.895Z,95807.11
2023-01-17T00:30:18.950Z,95807.11
2023-01-17T00:30:28.960Z,95807.84
2023-01-17T00:30:38.972Z,95814.38
2023-01-17T00:30:48.903Z,95803.23
2023-01-17T00:30:58.896Z,95804.89
2023-01-17T00:31:08.958Z,95814.14
2023-01-17T00:31:19.058Z,95821.98
2023-01-17T00:31:28.991Z,95820.02
2023-01-17T00:31:38.885Z,95814.38
2023-01-17T00:31:48.918Z,95813.07
2023-01-17T00:31:58.853Z,95816.75
2023-01-17T00:32:08.966Z,95818.44
2023-01-17T00:32:18.867Z,95819.53
2023-01-17T00:32:28.899Z,95817.65
2023-01-17T00:32:38.983Z,95813.07
2023-01-17T00:32:48.854Z,95817.32
2023-01-17T00:32:58.851Z,95822.40
2023-01-17T00:33:08.995Z,95821.82
2023-01-17T00:33:18.913Z,95825.34
2023-01-17T00:33:28.898Z,95821.00
2023-01-17T00:33:38.995Z,95820.19
2023-01-17T00:33:48.926Z,95825.34
2023-01-17T00:33:58.953Z,95819.78
2023-01-17T00:34:08.924Z,95827.30
2023-01-17T00:34:18.849Z,95822.31
2023-01-17T00:34:28.985Z,95823.09
2023-01-17T00:34:38.971Z,95826.80
2023-01-17T00:34:48.911Z,95824.23
2023-01-17T00:34:58.890Z,95822.52
2023-01-17T00:35:08.887Z,95823.53
2023-01-17T00:35:18.972Z,95828.16
2023-01-17T00:35:28.924Z,95833.39
2023-01-17T00:35:38.896Z,95833.80
2023-01-17T00:35:48.972Z,95826.90
2023-01-17T00:35:58.968Z,95824.94
2023-01-17T00:36:08.979Z,95824.77
2023-01-17T00:36:18.901Z,95826.90
2023-01-17T00:36:28.898Z,95820.93
2023-01-17T00:36:38.956Z,95830.00
2023-01-17T00:36:48.889Z,95829.14
2023-01-17T00:36:58.970Z,95828.81
2023-01-17T00:37:08.858Z,95833.92
2023-01-17T00:37:18.886Z,95820.20
2023-01-17T00:37:28.977Z,95826.61
2023-01-17T00:37:38.953Z,95829.95
2023-01-17T00:37:48.969Z,95823.62
2023-01-17T00:37:58.855Z,95824.52
2023-01-17T00:38:08.865Z,95828.70
2023-01-17T00:38:18.935Z,95823.13
2023-01-17T00:38:28.857Z,95825.59
2023-01-17T00:38:38.966Z,95829.95
2023-01-17T00:38:48.881Z,95833.88
2023-01-17T00:38:58.899Z,95833.14
2023-01-17T00:39:08.930Z,95831.76
2023-01-17T00:39:18.985Z,95829.26
2023-01-17T00:39:28.925Z,95826.61
2023-01-17T00:39:38.864Z,95825.00
2023-01-17T00:39:48.888Z,95826.69
2023-01-17T00:39:58.966Z,95829.09
2023-01-17T00:40:08.895Z,95830.98
2023-01-17T00:40:18.918Z,95830.48
2023-01-17T00:40:28.952Z,95823.38
2023-01-17T00:40:38.930Z,95828.12
2023-01-17T00:40:48.997Z,95826.40
2023-01-17T00:40:58.932Z,95829.83
2023-01-17T00:41:08.922Z,95827.30
2023-01-17T00:41:19.001Z,95829.91
2023-01-17T00:41:28.995Z,95827.55
2023-01-17T00:41:38.850Z,95830.11
2023-01-17T00:41:48.926Z,95829.42
2023-01-17T00:42:02.624Z,95829.54
2023-01-17T00:42:08.967Z,95831.88
2023-01-17T00:42:18.985Z,95835.64
2023-01-17T00:42:28.870Z,95834.53
2023-01-17T00:42:38.933Z,95833.72
2023-01-17T00:42:48.877Z,95825.61
2023-01-17T00:42:58.908Z,95830.03
2023-01-17T00:43:08.966Z,95827.09
2023-01-17T00:43:18.939Z,95826.31
2023-01-17T00:43:28.877Z,95825.82
2023-01-17T00:43:38.911Z,95833.30
2023-01-17T00:43:48.896Z,95830.27
2023-01-17T00:43:58.874Z,95829.82
2023-01-17T00:44:08.927Z,95825.23
2023-01-17T00:44:18.883Z,95826.30
2023-01-17T00:44:28.905Z,95830.02
2023-01-17T00:44:38.928Z,95831.58
2023-01-17T00:44:48.978Z,95825.52
2023-01-17T00:44:58.944Z,95825.94
2023-01-17T00:45:08.888Z,95825.36
2023-01-17T00:45:18.884Z,95825.94
2023-01-17T00:45:28.992Z,95826.42
2023-01-17T00:45:38.919Z,95828.02
2023-01-17T00:45:48.871Z,95823.77
2023-01-17T00:45:58.966Z,95825.89
2023-01-17T00:46:08.965Z,95824.53
2023-01-17T00:46:18.906Z,95830.21
2023-01-17T00:46:28.906Z,95829.80
2023-01-17T00:46:38.999Z,95831.52
2023-01-17T00:46:49.009Z,95827.92
2023-01-17T00:46:58.914Z,95832.02
2023-01-17T00:47:08.897Z,95831.47
2023-01-17T00:47:18.931Z,95827.44
2023-01-17T00:47:28.901Z,95824.00
2023-01-17T00:47:38.890Z,95826.00
2023-01-17T00:47:48.871Z,95827.30
2023-01-17T00:47:58.852Z,95831.72
2023-01-17T00:48:08.868Z,95829.42
2023-01-17T00:48:18.965Z,95837.61
2023-01-17T00:48:28.901Z,95833.65
2023-01-17T00:48:38.859Z,95835.61
2023-01-17T00:48:48.949Z,95835.28
2023-01-17T00:48:58.887Z,95832.98
2023-01-17T00:49:09.004Z,95827.23
2023-01-17T00:49:18.879Z,95826.38
2023-01-17T00:49:28.886Z,95829.59
2023-01-17T00:49:38.918Z,95832.59
2023-01-17T00:49:48.883Z,95825.80
2023-01-17T00:49:58.862Z,95832.27
2023-01-17T00:50:08.887Z,95827.88
2023-01-17T00:50:18.941Z,95825.92
2023-01-17T00:50:28.874Z,95830.53
2023-01-17T00:50:39.003Z,95823.92
2023-01-17T00:50:48.868Z,95829.55
2023-01-17T00:50:58.926Z,95827.11
2023-01-17T00:51:08.972Z,95830.22
2023-01-17T00:51:18.922Z,95834.79
2023-01-17T00:51:28.982Z,95830.73
2023-01-17T00:51:38.934Z,95830.58
2023-01-17T00:51:48.933Z,95830.66
2023-01-17T00:51:58.849Z,95833.27
2023-01-17T00:52:08.947Z,95831.23
2023-01-17T00:52:18.921Z,95832.24
2023-01-17T00:52:28.850Z,95836.05
2023-01-17T00:52:38.881Z,95832.73
2023-01-17T00:52:48.874Z,95834.12
2023-01-17T00:52:58.889Z,95832.57
2023-01-17T00:53:08.961Z,95833.06
2023-01-17T00:53:18.872Z,95834.05
2023-01-17T00:53:28.887Z,95832.25
2023-01-17T00:53:38.946Z,95832.28
2023-01-17T00:53:48.954Z,95832.45
2023-01-17T00:53:58.893Z,95832.45
2023-01-17T00:54:08.855Z,95832.09
2023-01-17T00:54:19.151Z,95835.23
2023-01-17T00:54:28.910Z,95832.86
2023-01-17T00:54:38.933Z,95831.71
2023-01-17T00:54:48.920Z,95832.09
2023-01-17T00:54:58.951Z,95834.86
2023-01-17T00:55:08.933Z,95841.36
2023-01-17T00:55:18.940Z,95837.36
2023-01-17T00:55:28.950Z,95841.52
2023-01-17T00:55:38.910Z,95842.06
2023-01-17T00:55:48.931Z,95838.45
2023-01-17T00:55:58.930Z,95838.13
2023-01-17T00:56:08.865Z,95842.72
2023-01-17T00:56:18.952Z,95843.53
2023-01-17T00:56:28.990Z,95843.86
2023-01-17T00:56:38.853Z,95837.31
2023-01-17T00:56:48.871Z,95842.38
2023-01-17T00:56:58.946Z,95840.59
2023-01-17T00:57:08.859Z,95836.66
2023-01-17T00:57:18.922Z,95837.64
2023-01-17T00:57:28.876Z,95840.13
2023-01-17T00:57:38.963Z,95834.73
2023-01-17T00:57:48.959Z,95841.92
2023-01-17T00:57:58.862Z,95839.96
2023-01-17T00:58:08.910Z,95841.22
2023-01-17T00:58:18.885Z,95836.86
2023-01-17T00:58:28.872Z,95838.12
2023-01-17T00:58:38.936Z,95839.50
2023-01-17T00:58:48.861Z,95836.19
2023-01-17T00:58:58.908Z,95836.03
2023-01-17T00:59:08.925Z,95839.58
2023-01-17T00:59:18.928Z,95833.69
2023-01-17T00:59:28.937Z,95837.73
2023-01-17T00:59:38.881Z,95838.39
2023-01-17T00:59:48.938Z,95840.27
2023-01-17T00:59:58.955Z,95834.91
2023-01-17T01:00:08.885Z,95836.46
2023-01-17T01:00:18.997Z,95834.83
2023-01-17T01:00:28.982Z,95834.45
2023-01-17T01:00:38.966Z,95841.78
2023-01-17T01:00:49.116Z,95844.55
2023-01-17T01:00:59.015Z,95845.20
2023-01-17T01:01:09.048Z,95845.25
2023-01-17T01:01:19.055Z,95840.67
2023-01-17T01:01:29.068Z,95844.67
2023-01-17T01:01:39.075Z,95841.33
2023-01-17T01:01:49.103Z,95851.09
2023-01-17T01:01:59.142Z,95847.95
2023-01-17T01:02:09.024Z,95846.31
2023-01-17T01:02:18.944Z,95843.12
2023-01-17T01:02:28.995Z,95841.23
2023-01-17T01:02:38.923Z,95836.66
2023-01-17T01:02:48.972Z,95843.45
2023-01-17T01:02:58.907Z,95841.60
2023-01-17T01:03:08.976Z,95835.60
2023-01-17T01:03:18.916Z,95838.17
2023-01-17T01:03:28.870Z,95836.62
2023-01-17T01:03:38.919Z,95833.75
2023-01-17T01:03:48.861Z,95836.70
2023-01-17T01:03:58.881Z,95839.31
2023-01-17T01:04:08.948Z,95842.13
2023-01-17T01:04:18.905Z,95839.77
2023-01-17T01:04:28.977Z,95841.34
2023-01-17T01:04:38.939Z,95842.77
2023-01-17T01:04:48.978Z,95840.86
2023-01-17T01:04:58.945Z,95841.34
2023-01-17T01:05:08.908Z,95844.79
2023-01-17T01:05:18.876Z,95847.56
2023-01-17T01:05:28.936Z,95847.08
2023-01-17T01:05:38.926Z,95843.06
2023-01-17T01:05:48.934Z,95840.53
2023-01-17T01:05:58.954Z,95840.74
2023-01-17T01:06:08.933Z,95842.82
2023-01-17T01:06:18.960Z,95839.71
2023-01-17T01:06:28.931Z,95843.15
2023-01-17T01:06:39.017Z,95845.44
2023-01-17T01:06:48.865Z,95848.44
2023-01-17T01:06:58.886Z,95848.30
2023-01-17T01:07:08.965Z,95839.52
2023-01-17T01:07:18.910Z,95840.28
2023-01-17T01:07:28.978Z,95841.80
2023-01-17T01:07:38.972Z,95838.73
2023-01-17T01:07:48.875Z,95840.28
2023-01-17T01:07:58.884Z,95836.08
2023-01-17T01:08:08.915Z,95835.38
2023-01-17T01:08:18.972Z,95839.09
2023-01-17T01:08:28.960Z,95837.91
2023-01-17T01:08:38.902Z,95840.65
2023-01-17T01:08:48.959Z,95838.28
2023-01-17T01:08:58.989Z,95836.15
2023-01-17T01:09:08.855Z,95837.05
2023-01-17T01:09:18.922Z,95838.39
2023-01-17T01:09:28.868Z,95837.82
2023-01-17T01:09:38.991Z,95838.16
2023-01-17T01:09:48.849Z,95837.69
2023-01-17T01:09:58.851Z,95838.02
2023-01-17T01:10:08.897Z,95835.60
2023-01-17T01:10:18.872Z,95835.03
2023-01-17T01:10:28.913Z,95833.47
2023-01-17T01:10:38.883Z,95838.50
2023-01-17T01:10:48.988Z,95836.29
2023-01-17T01:10:58.914Z,95829.74
2023-01-17T01:11:08.914Z,95836.62
2023-01-17T01:11:18.889Z,95832.03
2023-01-17T01:11:28.980Z,95836.45
2023-01-17T01:11:38.962Z,95833.02
2023-01-17T01:11:48.988Z,95837.30
2023-01-17T01:11:58.967Z,95838.75
2023-01-17T01:12:08.857Z,95835.34
2023-01-17T01:12:18.979Z,95838.00
2023-01-17T01:12:28.970Z,95834.89
2023-01-17T01:12:38.920Z,95837.91
2023-01-17T01:12:48.919Z,95838.65
2023-01-17T01:12:58.902Z,95839.58
2023-01-17T01:13:08.885Z,95844.91
2023-01-17T01:13:18.944Z,95843.43
2023-01-17T01:13:28.981Z,95845.60
2023-01-17T01:13:38.989Z,95840.70
2023-01-17T01:13:48.935Z,95834.48
2023-01-17T01:13:58.916Z,95836.86
2023-01-17T01:14:08.865Z,95835.88
2023-01-17T01:14:18.935Z,95836.53
2023-01-17T01:14:28.975Z,95832.77
2023-01-17T01:14:38.899Z,95836.86
2023-01-17T01:14:48.987Z,95837.30
2023-01-17T01:14:58.905Z,95836.70
2023-01-17T01:15:08.979Z,95838.66
2023-01-17T01:15:18.865Z,95837.84
2023-01-17T01:15:28.956Z,95833.97
2023-01-17T01:15:38.934Z,95838.50
2023-01-17T01:15:48.902Z,95834.62
2023-01-17T01:15:58.954Z,95835.23
2023-01-17T01:16:09.068Z,95835.48
2023-01-17T01:16:19.006Z,95835.48
2023-01-17T01:16:29.044Z,95835.80
2023-01-17T01:16:38.876Z,95837.27
2023-01-17T01:16:48.917Z,95836.05
2023-01-17T01:16:58.913Z,95842.02
2023-01-17T01:17:08.959Z,95839.11
2023-01-17T01:17:18.952Z,95841.59
2023-01-17T01:17:28.902Z,95837.83
2023-01-17T01:17:38.868Z,95842.17
2023-01-17T01:17:48.930Z,95840.94
2023-01-17T01:17:58.973Z,95837.91
2023-01-17T01:18:08.967Z,95838.98
2023-01-17T01:18:18.862Z,95842.12
2023-01-17T01:18:28.954Z,95839.02
2023-01-17T01:18:38.905Z,95840.00
2023-01-17T01:18:48.883Z,95840.16
2023-01-17T01:18:58.859Z,95838.52
2023-01-17T01:19:08.910Z,95838.31
2023-01-17T01:19:18.973Z,95834.95
2023-01-17T01:19:28.937Z,95833.32
2023-01-17T01:19:43.459Z,95834.80
2023-01-17T01:19:48.956Z,95838.72
2023-01-17T01:19:58.891Z,95844.32
2023-01-17T01:20:08.880Z,95844.73
2023-01-17T01:20:18.933Z,95834.50
2023-01-17T01:20:28.897Z,95836.70
2023-01-17T01:20:38.899Z,95838.67
2023-01-17T01:20:53.613Z,95834.86
2023-01-17T01:20:58.867Z,95838.88
2023-01-17T01:21:08.862Z,95833.23
2023-01-17T01:21:18.895Z,95836.78
2023-01-17T01:21:28.853Z,95838.70
2023-01-17T01:21:38.965Z,95837.11
2023-01-17T01:21:48.854Z,95836.02
2023-01-17T01:21:58.941Z,95837.59
2023-01-17T01:22:08.952Z,95833.75
2023-01-17T01:22:18.902Z,95838.99
2023-01-17T01:22:28.912Z,95840.33
2023-01-17T01:22:38.877Z,95839.40
2023-01-17T01:22:48.901Z,95836.38
2023-01-17T01:22:58.854Z,95826.47
2023-01-17T01:23:08.916Z,95827.24
2023-01-17T01:23:18.985Z,95827.28
2023-01-17T01:23:28.847Z,95834.25
2023-01-17T01:23:38.955Z,95836.86
2023-01-17T01:23:48.904Z,95837.59
2023-01-17T01:23:58.922Z,95838.66
2023-01-17T01:24:08.924Z,95833.55
2023-01-17T01:24:18.915Z,95838.95
2023-01-17T01:24:28.899Z,95836.06
2023-01-17T01:24:38.893Z,95835.07
2023-01-17T01:24:48.962Z,95836.92
2023-01-17T01:24:58.971Z,95835.12
2023-01-17T01:25:08.880Z,95835.28
2023-01-17T01:25:18.902Z,95838.36
2023-01-17T01:25:28.937Z,95837.34
2023-01-17T01:25:38.938Z,95838.58
2023-01-17T01:25:48.959Z,95837.92
2023-01-17T01:25:58.908Z,95836.50
2023-01-17T01:26:08.884Z,95839.82
2023-01-17T01:26:18.867Z,95834.80
2023-01-17T01:26:28.991Z,95837.30
2023-01-17T01:26:38.904Z,95832.77
2023-01-17T01:26:48.875Z,95832.31
2023-01-17T01:26:58.853Z,95828.69
2023-01-17T01:27:08.976Z,95835.47
2023-01-17T01:27:18.905Z,95830.28
2023-01-17T01:27:28.940Z,95833.55
2023-01-17T01:27:38.860Z,95828.94
2023-01-17T01:27:48.964Z,95828.20
2023-01-17T01:27:58.861Z,95830.41
2023-01-17T01:28:08.912Z,95833.92
2023-01-17T01:28:18.867Z,95834.58
2023-01-17T01:28:28.867Z,95837.94
2023-01-17T01:28:38.915Z,95832.62
2023-01-17T01:28:48.853Z,95835.23
2023-01-17T01:28:58.890Z,95834.12
2023-01-17T01:29:08.949Z,95840.27
2023-01-17T01:29:18.876Z,95836.83
2023-01-17T01:29:28.976Z,95836.50
2023-01-17T01:29:38.979Z,95835.89
2023-01-17T01:29:48.983Z,95841.05
2023-01-17T01:29:58.883Z,95839.41
2023-01-17T01:30:08.867Z,95836.14
2023-01-17T01:30:18.952Z,95838.92
2023-01-17T01:30:28.884Z,95836.70
2023-01-17T01:30:38.960Z,95840.06
2023-01-17T01:30:48.959Z,95837.28
2023-01-17T01:30:58.914Z,95843.73
2023-01-17T01:31:09.046Z,95841.53
2023-01-17T01:31:18.890Z,95841.95
2023-01-17T01:31:28.967Z,95838.19
2023-01-17T01:31:39.055Z,95835.12
2023-01-17T01:31:48.939Z,95835.17
2023-01-17T01:31:58.882Z,95835.02
2023-01-17T01:32:08.921Z,95835.22
2023-01-17T01:32:18.971Z,95835.55
2023-01-17T01:32:28.868Z,95830.16
2023-01-17T01:32:38.930Z,95831.71
2023-01-17T01:32:48.904Z,95832.81
2023-01-17T01:32:58.882Z,95837.72
2023-01-17T01:33:08.882Z,95835.39
2023-01-17T01:33:18.946Z,95854.25
2023-01-17T01:33:28.957Z,95842.60
2023-01-17T01:33:38.862Z,95839.30
2023-01-17T01:33:48.958Z,95837.82
2023-01-17T01:33:58.978Z,95837.66
2023-01-17T01:34:08.928Z,95833.41
2023-01-17T01:34:18.992Z,95832.64
2023-01-17T01:34:28.921Z,95833.73
2023-01-17T01:34:38.894Z,95837.30
2023-01-17T01:34:48.976Z,95836.97
2023-01-17T01:34:58.980Z,95839.95
2023-01-17T01:35:08.979Z,95834.72
2023-01-17T01:35:18.964Z,95838.64
2023-01-17T01:35:28.872Z,95842.28
2023-01-17T01:35:38.989Z,95847.92
2023-01-17T01:35:48.946Z,95837.42
2023-01-17T01:35:58.886Z,95835.79
2023-01-17T01:36:08.987Z,95834.64
2023-01-17T01:36:18.929Z,95836.61
2023-01-17T01:36:28.930Z,95838.60
2023-01-17T01:36:38.874Z,95839.09
2023-01-17T01:36:48.893Z,95841.14
2023-01-17T01:36:58.900Z,95840.16
2023-01-17T01:37:08.855Z,95842.94
2023-01-17T01:37:18.958Z,95840.89
2023-01-17T01:37:28.961Z,95842.33
2023-01-17T01:37:38.850Z,95835.95
2023-01-17T01:37:48.947Z,95846.94
2023-01-17T01:37:58.971Z,95843.55
2023-01-17T01:38:08.861Z,95838.65
2023-01-17T01:38:18.895Z,95836.44
2023-01-17T01:38:28.870Z,95844.37
2023-01-17T01:38:38.985Z,95838.08
2023-01-17T01:38:48.987Z,95843.14
2023-01-17T01:38:59.095Z,95843.31
2023-01-17T01:39:08.853Z,95843.95
2023-01-17T01:39:18.959Z,95843.62
2023-01-17T01:39:28.969Z,95840.48
2023-01-17T01:39:38.956Z,95834.73
2023-01-17T01:39:48.973Z,95835.70
2023-01-17T01:39:58.950Z,95839.52
2023-01-17T01:40:08.995Z,95844.71
2023-01-17T01:40:18.889Z,95837.92
2023-01-17T01:40:28.851Z,95837.11
2023-01-17T01:40:38.977Z,95842.50
2023-01-17T01:40:48.909Z,95841.89
2023-01-17T01:40:58.919Z,95841.61
2023-01-17T01:41:08.973Z,95841.48
2023-01-17T01:41:18.943Z,95837.40
2023-01-17T01:41:28.868Z,95844.88
2023-01-17T01:41:38.922Z,95843.91
2023-01-17T01:41:48.870Z,95846.88
2023-01-17T01:41:58.948Z,95842.72
2023-01-17T01:42:08.868Z,95838.22
2023-01-17T01:42:18.922Z,95837.03
2023-01-17T01:42:28.929Z,95836.91
2023-01-17T01:42:38.908Z,95834.53
2023-01-17T01:42:48.910Z,95842.05
2023-01-17T01:42:58.889Z,95839.28
2023-01-17T01:43:08.896Z,95839.60
2023-01-17T01:43:18.877Z,95838.88
2023-01-17T01:43:28.903Z,95840.67
2023-01-17T01:43:39.017Z,95845.21
2023-01-17T01:43:48.952Z,95836.70
2023-01-17T01:43:58.946Z,95835.39
2023-01-17T01:44:08.863Z,95839.86
2023-01-17T01:44:18.855Z,95835.56
2023-01-17T01:44:28.927Z,95838.66
2023-01-17T01:44:38.901Z,95836.21
2023-01-17T01:44:48.953Z,95834.34
2023-01-17T01:44:58.919Z,95836.88
2023-01-17T01:45:08.978Z,95836.50
2023-01-17T01:45:18.895Z,95840.88
2023-01-17T01:45:28.973Z,95834.26
2023-01-17T01:45:38.990Z,95830.49
2023-01-17T01:45:48.875Z,95833.92
2023-01-17T01:45:59.026Z,95835.39
2023-01-17T01:46:08.970Z,95842.59
2023-01-17T01:46:18.914Z,95833.59
2023-01-17T01:46:28.898Z,95832.94
2023-01-17T01:46:38.921Z,95832.25
2023-01-17T01:46:48.941Z,95830.00
2023-01-17T01:46:58.897Z,95835.80
2023-01-17T01:47:08.980Z,95844.56
2023-01-17T01:47:18.894Z,95839.08
2023-01-17T01:47:28.970Z,95836.38
2023-01-17T01:47:38.995Z,95826.41
2023-01-17T01:47:48.900Z,95833.27
2023-01-17T01:47:58.981Z,95831.27
2023-01-17T01:48:08.857Z,95833.23
2023-01-17T01:48:18.979Z,95830.17
2023-01-17T01:48:28.967Z,95832.73
2023-01-17T01:48:38.876Z,95827.42
2023-01-17T01:48:48.988Z,95832.78
2023-01-17T01:48:58.894Z,95834.09
2023-01-17T01:49:08.857Z,95826.08
2023-01-17T01:49:18.880Z,95832.95
2023-01-17T01:49:28.902Z,95828.20
2023-01-17T01:49:38.887Z,95832.12
2023-01-17T01:49:48.896Z,95827.71
2023-01-17T01:49:58.986Z,95828.53
2023-01-17T01:50:08.880Z,95828.05
2023-01-17T01:50:18.947Z,95822.23
2023-01-17T01:50:28.925Z,95822.73
2023-01-17T01:50:38.954Z,95824.28
2023-01-17T01:50:48.941Z,95831.14
2023-01-17T01:50:58.966Z,95839.48
2023-01-17T01:51:08.902Z,95831.84
2023-01-17T01:51:18.968Z,95824.44
2023-01-17T01:51:28.921Z,95829.02
2023-01-17T01:51:38.996Z,95825.09
2023-01-17T01:51:48.888Z,95831.63
2023-01-17T01:51:58.968Z,95831.14
2023-01-17T01:52:09.033Z,95832.94
2023-01-17T01:52:18.867Z,95819.27
2023-01-17T01:52:28.950Z,95823.62
2023-01-17T01:52:38.901Z,95821.34
2023-01-17T01:52:48.927Z,95824.56
2023-01-17T01:52:58.929Z,95819.66
2023-01-17T01:53:08.917Z,95822.77
2023-01-17T01:53:18.894Z,95828.08
2023-01-17T01:53:28.865Z,95829.63
2023-01-17T01:53:38.920Z,95827.75
2023-01-17T01:53:48.943Z,95825.80
2023-01-17T01:53:58.945Z,95824.89
2023-01-17T01:54:08.905Z,95826.25
2023-01-17T01:54:18.951Z,95823.30
2023-01-17T01:54:28.879Z,95826.48
2023-01-17T01:54:40.943Z,95828.86
2023-01-17T01:54:48.979Z,95822.48
2023-01-17T01:54:58.867Z,95821.98
2023-01-17T01:55:08.981Z,95823.70
2023-01-17T01:55:18.873Z,95826.73
2023-01-17T01:55:28.850Z,95828.25
2023-01-17T01:55:38.988Z,95832.99
2023-01-17T01:55:48.969Z,95838.47
2023-01-17T01:55:58.871Z,95835.61
2023-01-17T01:56:08.969Z,95829.72
2023-01-17T01:56:18.913Z,95829.19
2023-01-17T01:56:28.937Z,95828.30
2023-01-17T01:56:38.902Z,95833.11
2023-01-17T01:56:48.900Z,95831.41
2023-01-17T01:56:58.901Z,95820.72
2023-01-17T01:57:08.911Z,95823.92
2023-01-17T01:57:18.901Z,95820.45
2023-01-17T01:57:28.970Z,95822.56